createdAt,value
2018-11-04T00:01:37.243Z,25.00
2018-11-04T00:04:06.219Z,24.10
2018-11-04T00:06:35.047Z,25.30
2018-11-04T00:09:05.259Z,26.57
2018-11-04T00:11:34.163Z,24.07
2018-11-04T00:14:03.139Z,26.33
2018-11-04T00:16:32.087Z,25.73
2018-11-04T00:19:00.942Z,23.13
2018-11-04T00:21:29.845Z,22.40
2018-11-04T00:23:58.747Z,21.17
2018-11-04T00:26:27.699Z,21.60
2018-11-04T00:28:56.626Z,22.03
2018-11-04T00:31:25.599Z,23.40
2018-11-04T00:33:54.567Z,22.17
2018-11-04T00:36:23.555Z,23.87
2018-11-04T00:38:52.510Z,21.53
2018-11-04T00:41:21.367Z,22.20
2018-11-04T00:43:50.462Z,22.90
2018-11-04T00:46:19.424Z,22.07
2018-11-04T00:48:48.369Z,23.03
2018-11-04T00:51:17.314Z,22.60
2018-11-04T00:54:49.707Z,22.73
2018-11-04T00:57:18.599Z,23.97
2018-11-04T00:59:47.568Z,24.00
2018-11-04T01:02:16.490Z,22.70
2018-11-04T01:04:45.399Z,24.53
2018-11-04T01:07:14.339Z,23.13
2018-11-04T01:09:43.356Z,22.73
2018-11-04T01:12:12.255Z,22.30
2018-11-04T01:14:41.838Z,22.27
2018-11-04T01:17:10.747Z,21.50
2018-11-04T01:19:39.615Z,20.97
2018-11-04T01:22:08.506Z,20.37
2018-11-04T01:24:37.486Z,19.50
2018-11-04T01:27:06.562Z,21.00
2018-11-04T01:29:35.498Z,22.87
2018-11-04T01:32:04.795Z,20.47
2018-11-04T01:34:33.715Z,19.17
2018-11-04T01:37:02.593Z,20.67
2018-11-04T01:39:31.458Z,20.57
2018-11-04T01:42:00.362Z,20.70
2018-11-04T01:44:29.860Z,19.30
2018-11-04T01:46:58.818Z,21.17
2018-11-04T01:49:27.739Z,21.00
2018-11-04T01:51:56.631Z,20.97
2018-11-04T01:54:25.525Z,21.87
2018-11-04T01:56:54.455Z,19.13
2018-11-04T01:59:23.302Z,20.23
2018-11-04T02:01:52.207Z,20.90
2018-11-04T02:04:21.154Z,18.40
2018-11-04T02:06:50.066Z,19.30
2018-11-04T02:09:18.963Z,20.97
2018-11-04T02:11:47.848Z,20.10
2018-11-04T02:14:16.743Z,20.03
2018-11-04T02:16:45.630Z,20.23
2018-11-04T02:19:14.532Z,19.10
2018-11-04T02:21:43.416Z,19.50
2018-11-04T02:24:12.317Z,18.20
2018-11-04T02:26:41.175Z,19.73
2018-11-04T02:29:11.024Z,18.17
2018-11-04T02:31:39.901Z,19.90
2018-11-04T02:34:08.810Z,18.90
2018-11-04T02:36:37.686Z,20.80
2018-11-04T02:39:07.555Z,18.93
2018-11-04T02:41:36.766Z,19.40
2018-11-04T02:46:14.394Z,19.00
2018-11-04T02:48:43.418Z,19.67
2018-11-04T02:51:12.300Z,19.93
2018-11-04T02:53:41.176Z,20.20
2018-11-04T02:56:10.063Z,19.13
2018-11-04T02:58:39.058Z,19.27
2018-11-04T03:01:08.086Z,18.97
2018-11-04T03:03:36.935Z,20.30
2018-11-04T03:06:06.260Z,20.70
2018-11-04T03:08:35.099Z,20.50
2018-11-04T03:11:04.031Z,20.10
2018-11-04T03:13:32.882Z,19.40
2018-11-04T03:16:01.785Z,19.80
2018-11-04T03:18:30.686Z,19.20
2018-11-04T03:20:59.741Z,20.07
2018-11-04T03:23:28.670Z,20.40
2018-11-04T03:25:57.568Z,19.50
2018-11-04T03:28:26.450Z,17.80
2018-11-04T03:30:55.322Z,19.50
2018-11-04T03:33:24.248Z,19.27
2018-11-04T03:35:53.636Z,19.20
2018-11-04T03:38:22.542Z,18.90
2018-11-04T03:40:51.348Z,19.20
2018-11-04T03:43:20.291Z,20.67
2018-11-04T03:45:49.180Z,21.30
2018-11-04T03:48:18.074Z,20.27
2018-11-04T03:50:46.971Z,20.30
2018-11-04T03:53:15.858Z,19.50
2018-11-04T03:55:44.778Z,19.63
2018-11-04T03:58:13.651Z,21.57
2018-11-04T04:00:42.536Z,20.43
2018-11-04T04:03:11.390Z,22.60
2018-11-04T04:05:40.234Z,20.80
2018-11-04T04:08:09.191Z,22.90
2018-11-04T04:10:38.080Z,21.23
2018-11-04T04:13:07.034Z,18.57
2018-11-04T04:15:35.970Z,21.60
2018-11-04T04:18:04.855Z,21.93
2018-11-04T04:20:33.693Z,21.97
2018-11-04T04:23:02.708Z,20.93
2018-11-04T04:25:31.647Z,21.87
2018-11-04T04:28:01.128Z,21.47
2018-11-04T04:30:30.023Z,22.07
2018-11-04T04:32:58.914Z,23.63
2018-11-04T04:35:27.775Z,21.53
2018-11-04T04:37:56.698Z,23.57
2018-11-04T04:40:25.575Z,22.47
2018-11-04T04:42:54.470Z,23.10
2018-11-04T04:45:24.351Z,22.20
2018-11-04T04:47:53.294Z,23.63
2018-11-04T04:50:22.156Z,23.67
2018-11-04T04:52:51.610Z,23.60
2018-11-04T04:55:20.555Z,23.37
2018-11-04T04:57:49.483Z,23.37
2018-11-04T05:00:18.451Z,24.47
2018-11-04T05:02:47.327Z,23.67
2018-11-04T05:05:16.162Z,25.07
2018-11-04T05:07:45.118Z,24.33
2018-11-04T05:10:14.008Z,24.97
2018-11-04T05:12:42.950Z,24.03
2018-11-04T05:15:11.899Z,26.73
2018-11-04T05:17:40.758Z,25.60
2018-11-04T05:20:09.674Z,25.97
2018-11-04T05:22:38.567Z,26.20
2018-11-04T05:25:07.453Z,24.53
2018-11-04T05:27:36.320Z,25.10
2018-11-04T05:30:08.048Z,24.30
2018-11-04T05:32:36.982Z,26.10
2018-11-04T05:35:06.543Z,26.67
2018-11-04T05:37:35.731Z,26.90
2018-11-04T05:40:05.906Z,27.30
2018-11-04T05:42:34.849Z,26.60
2018-11-04T05:45:04.040Z,26.17
2018-11-04T05:47:32.976Z,25.80
2018-11-04T05:50:01.859Z,24.73
2018-11-04T05:52:30.762Z,26.00
2018-11-04T05:54:59.590Z,26.50
2018-11-04T05:57:29.183Z,26.07
2018-11-04T05:59:58.011Z,26.00
2018-11-04T06:02:26.991Z,27.20
2018-11-04T06:04:55.819Z,26.73
2018-11-04T06:07:24.690Z,24.80
2018-11-04T06:09:53.717Z,25.87
2018-11-04T06:12:22.671Z,26.07
2018-11-04T06:14:51.510Z,26.10
2018-11-04T06:17:20.422Z,26.27
2018-11-04T06:19:49.258Z,26.40
2018-11-04T06:22:18.104Z,25.70
2018-11-04T06:24:46.995Z,26.30
2018-11-04T06:27:15.891Z,26.83
2018-11-04T06:29:44.874Z,27.30
2018-11-04T06:32:13.739Z,28.13
2018-11-04T06:34:42.655Z,28.17
2018-11-04T06:38:15.090Z,27.53
2018-11-04T06:40:44.026Z,28.17
2018-11-04T06:43:12.900Z,31.40
2018-11-04T06:45:41.767Z,29.40
2018-11-04T06:48:10.671Z,32.93
2018-11-04T06:50:39.530Z,27.87
2018-11-04T06:53:08.378Z,29.63
2018-11-04T06:55:37.226Z,27.50
2018-11-04T06:58:06.883Z,30.00
2018-11-04T07:00:35.764Z,31.50
2018-11-04T07:03:04.699Z,29.37
2018-11-04T07:05:33.531Z,27.30
2018-11-04T07:08:02.387Z,28.80
2018-11-04T07:10:31.235Z,31.10
2018-11-04T07:13:00.078Z,28.37
2018-11-04T07:15:28.912Z,31.07
2018-11-04T07:17:57.776Z,30.27
2018-11-04T07:27:21.077Z,29.40
2018-11-04T07:29:50.011Z,29.40
2018-11-04T07:32:19.485Z,32.63
2018-11-04T07:34:48.401Z,30.73
2018-11-04T07:37:17.287Z,33.60
2018-11-04T07:39:46.135Z,33.03
2018-11-04T07:42:15.074Z,31.50
2018-11-04T07:44:44.032Z,33.50
2018-11-04T07:47:12.942Z,33.50
2018-11-04T07:49:41.996Z,32.13
2018-11-04T07:52:11.042Z,35.27
2018-11-04T07:54:39.945Z,33.50
2018-11-04T07:57:08.992Z,32.73
2018-11-04T07:59:37.918Z,31.60
2018-11-04T08:02:07.060Z,33.90
2018-11-04T08:04:36.283Z,35.30
2018-11-04T08:07:05.190Z,36.23
2018-11-04T08:09:34.079Z,41.37
2018-11-04T08:12:02.990Z,40.30
2018-11-04T08:14:31.862Z,39.20
2018-11-04T08:17:00.767Z,44.10
2018-11-04T08:19:29.711Z,48.60
2018-11-04T08:21:58.734Z,42.10
2018-11-04T08:24:27.636Z,42.87
2018-11-04T08:26:56.498Z,38.13
2018-11-04T08:29:25.427Z,38.97
2018-11-04T08:31:55.092Z,40.23
2018-11-04T08:34:24.074Z,38.67
2018-11-04T08:36:52.985Z,35.00
2018-11-04T08:39:21.890Z,49.30
2018-11-04T08:41:50.790Z,40.43
2018-11-04T08:44:19.690Z,38.07
2018-11-04T08:46:48.564Z,45.67
2018-11-04T08:49:17.482Z,34.47
2018-11-04T08:51:46.343Z,38.43
2018-11-04T08:54:15.238Z,34.43
2018-11-04T08:56:45.147Z,38.57
2018-11-04T08:59:15.063Z,35.50
2018-11-04T09:01:44.058Z,37.77
2018-11-04T09:04:12.944Z,35.10
2018-11-04T09:06:41.968Z,34.10
2018-11-04T09:09:10.734Z,38.80
2018-11-04T09:11:39.616Z,35.17
2018-11-04T09:14:09.134Z,36.33
2018-11-04T09:16:38.028Z,35.60
2018-11-04T09:19:06.904Z,36.80
2018-11-04T09:21:35.904Z,40.53
2018-11-04T09:24:05.382Z,36.27
2018-11-04T09:26:34.222Z,38.00
2018-11-04T09:29:03.082Z,43.80
2018-11-04T09:31:31.975Z,35.53
2018-11-04T09:34:00.839Z,36.37
2018-11-04T09:36:29.808Z,36.50
2018-11-04T09:38:58.638Z,35.67
2018-11-04T09:41:27.506Z,39.63
2018-11-04T09:43:56.547Z,36.30
2018-11-04T09:46:25.382Z,37.00
2018-11-04T09:48:54.642Z,34.80
2018-11-04T09:51:23.787Z,34.87
2018-11-04T09:53:53.210Z,38.33
2018-11-04T09:56:22.493Z,36.77
2018-11-04T09:58:51.358Z,38.17
2018-11-04T10:01:20.291Z,35.90
2018-11-04T10:03:49.163Z,39.50
2018-11-04T10:06:18.120Z,38.03
2018-11-04T10:08:47.069Z,37.20
2018-11-04T10:11:15.879Z,38.13
2018-11-04T10:13:44.822Z,35.77
2018-11-04T10:16:13.744Z,38.57
2018-11-04T10:18:42.671Z,36.67
2018-11-04T10:21:11.854Z,36.40
2018-11-04T10:23:40.387Z,36.43
2018-11-04T10:26:09.266Z,37.90
2018-11-04T10:28:38.070Z,38.20
2018-11-04T10:31:07.024Z,36.50
2018-11-04T10:33:36.147Z,37.10
2018-11-04T10:36:05.175Z,39.40
2018-11-04T10:38:34.038Z,38.27
2018-11-04T10:41:02.983Z,39.23
2018-11-04T10:43:31.908Z,36.47
2018-11-04T10:46:00.836Z,38.30
2018-11-04T10:48:29.654Z,39.07
2018-11-04T10:50:58.659Z,35.80
2018-11-04T10:53:27.590Z,37.97
2018-11-04T10:55:56.582Z,36.47
2018-11-04T10:58:25.558Z,38.17
2018-11-04T11:00:59.794Z,37.57
2018-11-04T11:03:28.626Z,35.80
2018-11-04T11:05:57.714Z,37.10
2018-11-04T11:08:26.662Z,38.63
2018-11-04T11:10:55.671Z,37.50
2018-11-04T11:13:24.474Z,36.60
2018-11-04T11:15:53.438Z,37.60
2018-11-04T11:18:22.291Z,36.93
2018-11-04T11:20:51.855Z,35.90
2018-11-04T11:23:20.818Z,39.23
2018-11-04T11:25:49.656Z,35.27
2018-11-04T11:28:18.642Z,40.03
2018-11-04T11:30:47.598Z,40.30
2018-11-04T11:33:16.492Z,67.67
2018-11-04T11:35:45.402Z,84.87
2018-11-04T11:38:14.350Z,68.80
2018-11-04T11:40:43.245Z,65.23
2018-11-04T11:43:12.102Z,65.27
2018-11-04T11:45:41.066Z,81.53
2018-11-04T11:48:10.274Z,85.20
2018-11-04T11:50:39.358Z,64.60
2018-11-04T11:53:08.374Z,59.47
2018-11-04T11:55:37.271Z,65.83
2018-11-04T11:58:06.334Z,51.70
2018-11-04T12:00:35.331Z,72.53
2018-11-04T12:03:04.351Z,48.50
2018-11-04T12:05:33.278Z,61.47
2018-11-04T12:08:02.149Z,42.33
2018-11-04T12:10:31.018Z,50.57
2018-11-04T12:12:59.910Z,59.80
2018-11-04T12:15:28.830Z,50.20
2018-11-04T12:17:57.940Z,56.40
2018-11-04T12:20:26.688Z,54.17
2018-11-04T12:22:55.799Z,50.40
2018-11-04T12:25:24.743Z,48.30
2018-11-04T12:27:53.707Z,52.47
2018-11-04T12:30:22.731Z,51.10
2018-11-04T12:32:51.626Z,52.80
2018-11-04T12:35:20.626Z,48.47
2018-11-04T12:37:49.428Z,45.00
2018-11-04T12:40:18.348Z,42.00
2018-11-04T12:42:47.206Z,45.20
2018-11-04T12:45:16.126Z,48.37
2018-11-04T12:47:45.068Z,50.00
2018-11-04T12:50:13.966Z,46.30
2018-11-04T12:52:42.915Z,47.40
2018-11-04T12:55:11.770Z,48.03
2018-11-04T12:57:40.638Z,42.60
2018-11-04T13:00:12.956Z,44.40
2018-11-04T13:02:42.198Z,43.60
2018-11-04T13:05:11.478Z,43.90
2018-11-04T13:07:40.399Z,44.40
2018-11-04T13:10:11.405Z,42.60
2018-11-04T13:12:40.236Z,49.50
2018-11-04T13:15:10.851Z,45.87
2018-11-04T13:17:39.818Z,45.97
2018-11-04T13:20:08.785Z,45.43
2018-11-04T13:22:37.894Z,41.20
2018-11-04T13:25:07.534Z,44.50
2018-11-04T13:27:36.454Z,45.37
2018-11-04T13:30:07.388Z,43.93
2018-11-04T13:32:36.460Z,43.97
2018-11-04T13:35:05.758Z,41.20
2018-11-04T13:37:34.650Z,42.13
2018-11-04T13:40:03.862Z,48.10
2018-11-04T13:42:32.751Z,45.30
2018-11-04T13:45:01.811Z,41.80
2018-11-04T13:47:30.730Z,40.90
2018-11-04T13:50:00.658Z,43.27
2018-11-04T13:52:29.598Z,42.80
2018-11-04T13:54:58.539Z,40.27
2018-11-04T13:57:27.794Z,41.90
2018-11-04T13:59:57.345Z,44.40
2018-11-04T14:02:26.372Z,44.60
2018-11-04T14:04:55.805Z,44.87
2018-11-04T14:07:24.802Z,41.70
2018-11-04T14:09:54.698Z,47.67
2018-11-04T14:12:23.618Z,45.37
2018-11-04T14:14:52.583Z,45.50
2018-11-04T14:17:21.574Z,39.00
2018-11-04T14:19:50.475Z,40.93
2018-11-04T14:22:19.386Z,44.37
2018-11-04T14:24:48.258Z,44.57
2018-11-04T14:27:17.178Z,45.43
2018-11-04T14:29:46.042Z,43.67
2018-11-04T14:32:14.931Z,44.13
2018-11-04T14:34:43.863Z,46.37
2018-11-04T14:37:12.714Z,42.93
2018-11-04T14:39:41.604Z,43.73
2018-11-04T14:42:10.521Z,45.00
2018-11-04T14:44:39.403Z,44.50
2018-11-04T14:47:08.274Z,44.17
2018-11-04T14:49:37.187Z,45.37
2018-11-04T14:52:06.050Z,43.70
2018-11-04T14:54:34.983Z,42.00
2018-11-04T14:57:03.864Z,44.47
2018-11-04T14:59:32.744Z,43.87
2018-11-04T15:02:01.743Z,45.70
2018-11-04T15:04:30.543Z,44.70
2018-11-04T15:06:59.394Z,44.40
2018-11-04T15:09:28.290Z,45.27
2018-11-04T15:14:05.269Z,43.50
2018-11-04T15:16:34.193Z,44.23
2018-11-04T15:19:03.173Z,46.80
2018-11-04T15:21:31.938Z,44.60
2018-11-04T15:24:00.966Z,45.67
2018-11-04T15:26:29.883Z,44.97
2018-11-04T15:28:58.731Z,47.20
2018-11-04T15:31:27.614Z,43.53
2018-11-04T15:33:56.531Z,45.70
2018-11-04T15:36:25.390Z,42.40
2018-11-04T15:38:54.358Z,46.50
2018-11-04T15:41:23.175Z,42.97
2018-11-04T15:43:52.066Z,45.83
2018-11-04T15:46:20.958Z,50.47
2018-11-04T15:48:50.365Z,67.10
2018-11-04T15:51:19.316Z,80.60
2018-11-04T15:53:48.231Z,81.37
2018-11-04T15:56:17.157Z,68.87
2018-11-04T15:58:46.036Z,74.70
2018-11-04T16:01:14.887Z,66.13
2018-11-04T16:03:43.869Z,57.63
2018-11-04T16:06:12.795Z,53.03
2018-11-04T16:08:41.723Z,56.40
2018-11-04T16:11:10.576Z,62.90
2018-11-04T16:13:39.470Z,55.27
2018-11-04T16:16:08.356Z,54.17
2018-11-04T16:18:37.248Z,50.57
2018-11-04T16:21:06.222Z,56.63
2018-11-04T16:23:35.122Z,52.10
2018-11-04T16:26:04.029Z,51.60
2018-11-04T16:28:33.166Z,51.80
2018-11-04T16:31:02.185Z,53.40
2018-11-04T16:33:31.152Z,52.67
2018-11-04T16:36:00.091Z,49.20
2018-11-04T16:45:26.500Z,49.90
2018-11-04T16:47:55.456Z,51.30
2018-11-04T16:50:24.325Z,49.40
2018-11-04T16:52:53.242Z,50.80
2018-11-04T16:55:22.107Z,47.93
2018-11-04T16:57:51.026Z,46.47
2018-11-04T17:00:19.908Z,48.93
2018-11-04T17:02:48.830Z,48.70
2018-11-04T17:05:17.932Z,47.13
2018-11-04T17:07:46.583Z,46.60
2018-11-04T17:10:15.460Z,46.87
2018-11-04T17:12:44.363Z,45.07
2018-11-04T17:15:14.110Z,51.23
2018-11-04T17:17:43.423Z,54.83
2018-11-04T17:20:15.995Z,49.37
2018-11-04T17:22:45.506Z,46.90
2018-11-04T17:25:14.462Z,46.23
2018-11-04T17:27:43.439Z,62.20
2018-11-04T17:30:15.122Z,46.70
2018-11-04T17:32:44.468Z,45.27
2018-11-04T17:35:14.347Z,46.27
2018-11-04T17:37:43.663Z,45.17
2018-11-04T17:40:13.479Z,47.70
2018-11-04T17:42:42.455Z,44.77
2018-11-04T17:45:12.814Z,45.03
2018-11-04T17:47:41.734Z,47.20
2018-11-04T17:50:13.651Z,48.27
2018-11-04T17:52:43.034Z,44.73
2018-11-04T17:55:11.972Z,42.00
2018-11-04T17:57:40.907Z,43.37
2018-11-04T18:00:11.240Z,43.47
2018-11-04T18:02:41.109Z,41.57
2018-11-04T18:05:10.643Z,45.60
2018-11-04T18:07:39.651Z,41.67
2018-11-04T18:10:08.949Z,42.40
2018-11-04T18:12:37.886Z,40.90
2018-11-04T18:15:07.398Z,41.60
2018-11-04T18:17:36.334Z,43.10
2018-11-04T18:20:06.051Z,43.07
2018-11-04T18:22:35.623Z,39.70
2018-11-04T18:25:04.658Z,38.57
2018-11-04T18:27:33.642Z,37.53
2018-11-04T18:30:02.547Z,39.10
2018-11-04T18:32:31.743Z,38.90
2018-11-04T18:35:00.718Z,41.70
2018-11-04T18:37:29.638Z,42.23
2018-11-04T18:39:58.554Z,40.80
2018-11-04T18:42:27.571Z,38.90
2018-11-04T18:44:56.547Z,36.40
2018-11-04T18:47:25.532Z,35.93
2018-11-04T18:49:54.435Z,37.20
2018-11-04T18:52:23.300Z,36.03
2018-11-04T18:54:52.249Z,34.50
2018-11-04T18:57:21.179Z,36.10
2018-11-04T18:59:50.111Z,37.97
2018-11-04T19:02:19.047Z,36.80
2018-11-04T19:04:47.939Z,36.10
2018-11-04T19:07:16.834Z,36.63
2018-11-04T19:09:45.774Z,34.57
2018-11-04T19:12:14.699Z,33.47
2018-11-04T19:14:43.604Z,33.17
2018-11-04T19:17:12.522Z,35.17
2018-11-04T19:19:41.363Z,35.20
2018-11-04T19:22:10.294Z,32.00
2018-11-04T19:24:39.163Z,33.83
2018-11-04T19:27:08.114Z,33.50
2018-11-04T19:29:37.024Z,34.17
2018-11-04T19:32:06.324Z,34.27
2018-11-04T19:34:35.296Z,32.10
2018-11-04T19:37:04.282Z,35.40
2018-11-04T19:39:33.118Z,32.47
2018-11-04T19:42:01.989Z,38.53
2018-11-04T19:44:30.893Z,43.47
2018-11-04T19:46:59.798Z,39.93
2018-11-04T19:49:28.654Z,37.87
2018-11-04T19:51:57.567Z,39.43
2018-11-04T19:54:26.456Z,40.70
2018-11-04T19:56:55.340Z,33.60
2018-11-04T19:59:24.286Z,37.30
2018-11-04T20:01:53.427Z,38.87
2018-11-04T20:04:22.382Z,36.13
2018-11-04T20:06:51.328Z,33.27
2018-11-04T20:09:20.195Z,33.00
2018-11-04T20:11:49.097Z,37.53
2018-11-04T20:14:19.590Z,32.23
2018-11-04T20:16:49.604Z,31.80
2018-11-04T20:19:23.968Z,31.40
2018-11-04T20:21:53.323Z,34.80
2018-11-04T20:24:27.571Z,34.90
2018-11-04T20:26:57.436Z,28.47
2018-11-04T20:29:26.344Z,32.27
2018-11-04T20:32:00.767Z,31.23
2018-11-04T20:34:29.698Z,29.30
2018-11-04T20:36:58.575Z,30.83
2018-11-04T20:39:32.798Z,25.50
2018-11-04T20:42:01.874Z,31.07
2018-11-04T20:44:30.782Z,29.40
2018-11-04T20:46:59.662Z,27.20
2018-11-04T20:49:33.890Z,26.90
2018-11-04T20:52:02.813Z,27.00
2018-11-04T20:54:31.654Z,28.20
2018-11-04T20:57:05.900Z,28.40
2018-11-04T20:59:34.814Z,30.23
2018-11-04T21:02:03.760Z,28.73
2018-11-04T21:04:32.658Z,27.30
2018-11-04T21:07:01.518Z,29.87
2018-11-04T21:09:30.453Z,27.93
2018-11-04T21:11:59.295Z,29.13
2018-11-04T21:14:28.301Z,34.17
2018-11-04T21:16:57.904Z,28.57
2018-11-04T21:19:26.782Z,32.50
2018-11-04T21:21:55.694Z,26.53
2018-11-04T21:24:24.561Z,28.77
2018-11-04T21:26:53.852Z,28.50
2018-11-04T21:29:23.153Z,29.47
2018-11-04T21:31:51.769Z,28.97
2018-11-04T21:34:20.659Z,26.80
2018-11-04T21:36:49.550Z,29.10
2018-11-04T21:39:18.438Z,28.67
2018-11-04T21:41:47.334Z,29.23
2018-11-04T21:44:16.548Z,29.10
2018-11-04T21:46:45.157Z,29.80
2018-11-04T21:49:14.238Z,30.13
2018-11-04T21:51:43.582Z,29.57
2018-11-04T21:54:12.525Z,29.70
2018-11-04T21:56:41.623Z,30.47
2018-11-04T21:59:10.350Z,32.67
2018-11-04T22:01:39.258Z,31.57
2018-11-04T22:04:08.222Z,32.40
2018-11-04T22:06:37.054Z,31.83
2018-11-04T22:09:07.892Z,32.80
2018-11-04T22:13:45.295Z,34.60
2018-11-04T22:16:14.183Z,39.27
2018-11-04T22:18:43.053Z,34.37
2018-11-04T22:21:12.107Z,33.80
2018-11-04T22:23:40.926Z,33.07
2018-11-04T22:26:09.866Z,30.90
2018-11-04T22:28:38.823Z,31.63
2018-11-04T22:31:07.952Z,35.40
2018-11-04T22:33:36.907Z,34.77
2018-11-04T22:36:08.666Z,32.87
2018-11-04T22:38:37.581Z,34.50
2018-11-04T22:41:07.294Z,35.13
2018-11-04T22:43:36.547Z,35.13
2018-11-04T22:46:06.135Z,34.07
2018-11-04T22:48:35.093Z,34.93
2018-11-04T22:51:05.178Z,35.23
2018-11-04T22:53:34.114Z,35.00
2018-11-04T22:56:03.332Z,34.87
2018-11-04T22:58:32.286Z,33.10
2018-11-04T23:01:02.266Z,36.53
2018-11-04T23:03:31.313Z,36.90
2018-11-04T23:06:04.914Z,36.53
2018-11-04T23:08:34.051Z,34.63
2018-11-04T23:11:03.084Z,34.30
2018-11-04T23:13:32.348Z,33.73
2018-11-04T23:16:01.243Z,33.70
2018-11-04T23:18:30.304Z,35.20
2018-11-04T23:20:59.262Z,33.83
2018-11-04T23:23:28.300Z,41.73
2018-11-04T23:25:57.203Z,34.57
2018-11-04T23:28:26.115Z,37.07
2018-11-04T23:30:55.028Z,35.73
2018-11-04T23:33:23.960Z,35.07
2018-11-04T23:35:52.882Z,34.40
2018-11-04T23:38:21.726Z,36.17
2018-11-04T23:40:50.696Z,35.90
2018-11-04T23:43:19.709Z,36.07
2018-11-04T23:45:48.654Z,34.30
2018-11-04T23:48:17.575Z,35.20
2018-11-04T23:50:47.290Z,36.93
2018-11-04T23:53:16.264Z,37.53
2018-11-04T23:55:45.790Z,37.23
2018-11-04T23:58:14.736Z,36.07
